createdAt,value
2023-04-02T00:00:09.794Z,51.85
2023-04-02T00:03:01.461Z,51.41
2023-04-02T00:05:50.684Z,51.85
2023-04-02T00:08:24.330Z,51.65
2023-04-02T00:10:57.964Z,51.96
2023-04-02T00:13:29.063Z,51.87
2023-04-02T00:15:57.990Z,51.74
2023-04-02T00:18:26.312Z,51.84
2023-04-02T00:21:12.446Z,52.02
2023-04-02T00:23:41.943Z,51.64
2023-04-02T00:26:40.052Z,51.91
2023-04-02T00:29:07.621Z,51.73
2023-04-02T00:31:37.357Z,51.88
2023-04-02T00:34:04.814Z,51.87
2023-04-02T00:36:36.525Z,52.04
2023-04-02T00:39:07.512Z,52.26
2023-04-02T00:41:38.808Z,51.94
2023-04-02T00:44:06.005Z,51.79
2023-04-02T00:46:47.067Z,51.92
2023-04-02T00:49:31.592Z,52.06
2023-04-02T00:52:02.058Z,51.99
2023-04-02T00:54:32.992Z,52.26
2023-04-02T00:56:59.937Z,51.82
2023-04-02T00:59:33.432Z,52.12
2023-04-02T01:02:14.978Z,51.88
2023-04-02T01:04:41.881Z,52.03
2023-04-02T01:07:12.218Z,52.06
2023-04-02T01:10:18.201Z,51.93
2023-04-02T01:12:55.727Z,52.03
2023-04-02T01:15:33.518Z,52.06
2023-04-02T01:18:13.841Z,51.92
2023-04-02T01:20:49.477Z,51.81
2023-04-02T01:23:29.990Z,52.02
2023-04-02T01:26:22.425Z,52.12
2023-04-02T01:29:02.899Z,52.58
2023-04-02T01:31:31.127Z,51.87
2023-04-02T01:33:57.804Z,51.92
2023-04-02T01:36:49.632Z,51.91
2023-04-02T01:39:31.119Z,52.20
2023-04-02T01:42:14.279Z,52.01
2023-04-02T01:44:50.903Z,52.21
2023-04-02T01:47:21.931Z,52.24
2023-04-02T01:49:48.683Z,52.13
2023-04-02T01:52:35.381Z,52.39
2023-04-02T01:55:02.434Z,52.07
2023-04-02T01:57:29.547Z,52.05
2023-04-02T01:59:56.373Z,52.14
2023-04-02T02:02:23.308Z,51.74
2023-04-02T02:04:49.988Z,51.80
2023-04-02T02:07:20.553Z,51.94
2023-04-02T02:09:48.878Z,51.99
2023-04-02T02:12:16.168Z,52.05
2023-04-02T02:14:50.821Z,51.88
2023-04-02T02:17:24.173Z,51.89
2023-04-02T02:19:55.216Z,52.03
2023-04-02T02:22:28.524Z,52.11
2023-04-02T02:24:57.488Z,52.02
2023-04-02T02:27:24.004Z,51.81
2023-04-02T02:30:02.221Z,52.18
2023-04-02T02:32:33.433Z,52.23
2023-04-02T02:35:19.216Z,51.77
2023-04-02T02:37:50.886Z,52.07
2023-04-02T02:40:26.766Z,52.14
2023-04-02T02:43:00.167Z,52.00
2023-04-02T02:45:33.152Z,52.06
2023-04-02T02:48:02.234Z,52.05
2023-04-02T02:50:31.654Z,52.19
2023-04-02T02:53:00.409Z,52.35
2023-04-02T02:55:34.441Z,52.11
2023-04-02T02:58:20.055Z,52.48
2023-04-02T03:00:47.883Z,51.39
2023-04-02T03:03:19.254Z,51.79
2023-04-02T03:05:52.348Z,52.08
2023-04-02T03:08:55.790Z,52.03
2023-04-02T03:12:01.722Z,51.77
2023-04-02T03:14:41.575Z,52.01
2023-04-02T03:17:19.131Z,52.05
2023-04-02T03:20:14.766Z,52.39
2023-04-02T03:22:53.053Z,52.20
2023-04-02T03:26:01.842Z,51.93
2023-04-02T03:28:33.130Z,51.79
2023-04-02T03:31:15.973Z,52.00
2023-04-02T03:33:47.909Z,52.36
2023-04-02T03:36:28.560Z,52.57
2023-04-02T03:39:16.354Z,52.46
2023-04-02T03:41:56.932Z,51.72
2023-04-02T03:44:49.624Z,51.45
2023-04-02T03:47:33.917Z,51.63
2023-04-02T03:50:11.671Z,50.97
2023-04-02T03:52:39.095Z,50.94
2023-04-02T03:55:20.330Z,50.89
2023-04-02T03:58:00.221Z,50.55
2023-04-02T04:00:38.283Z,50.69
2023-04-02T04:03:26.344Z,50.37
2023-04-02T04:06:00.009Z,50.51
2023-04-02T04:08:46.858Z,50.54
2023-04-02T04:11:22.725Z,50.08
2023-04-02T04:14:00.994Z,50.19
2023-04-02T04:16:35.950Z,50.09
2023-04-02T04:19:05.045Z,49.97
2023-04-02T04:21:37.619Z,50.00
2023-04-02T04:24:07.440Z,50.27
2023-04-02T04:26:44.611Z,50.14
2023-04-02T04:29:27.322Z,49.70
2023-04-02T04:31:55.673Z,49.17
2023-04-02T04:34:46.837Z,49.92
2023-04-02T04:37:43.154Z,49.97
2023-04-02T04:40:18.844Z,49.78
2023-04-02T04:42:48.411Z,49.98
2023-04-02T04:45:40.892Z,50.44
2023-04-02T04:48:17.740Z,50.56
2023-04-02T04:51:01.196Z,50.54
2023-04-02T04:53:29.584Z,50.38
2023-04-02T04:56:12.546Z,50.53
2023-04-02T04:58:47.596Z,50.15
2023-04-02T05:01:24.181Z,50.38
2023-04-02T05:04:03.745Z,50.17
2023-04-02T05:06:45.002Z,49.97
2023-04-02T05:09:24.674Z,49.85
2023-04-02T05:12:26.021Z,50.20
2023-04-02T05:15:32.745Z,50.02
2023-04-02T05:18:16.361Z,49.80
2023-04-02T05:20:56.791Z,49.69
2023-04-02T05:23:28.182Z,49.70
2023-04-02T05:26:11.355Z,49.34
2023-04-02T05:28:47.576Z,49.21
2023-04-02T05:31:19.982Z,50.02
2023-04-02T05:33:49.066Z,49.36
2023-04-02T05:36:22.418Z,49.80
2023-04-02T05:38:51.250Z,49.65
2023-04-02T05:41:39.284Z,49.30
2023-04-02T05:44:07.684Z,49.30
2023-04-02T05:46:41.185Z,49.68
2023-04-02T05:49:13.908Z,49.55
2023-04-02T05:51:45.779Z,49.38
2023-04-02T05:54:31.123Z,49.70
2023-04-02T05:57:04.670Z,49.96
2023-04-02T05:59:37.756Z,49.92
2023-04-02T06:02:22.357Z,50.55
2023-04-02T06:05:01.228Z,50.18
2023-04-02T06:07:54.403Z,50.28
2023-04-02T06:10:28.712Z,49.79
2023-04-02T06:13:02.281Z,49.62
2023-04-02T06:15:30.730Z,49.13
2023-04-02T06:18:19.907Z,49.39
2023-04-02T06:20:47.336Z,49.23
2023-04-02T06:23:21.119Z,48.63
2023-04-02T06:25:58.206Z,48.76
2023-04-02T06:28:30.706Z,48.70
2023-04-02T06:31:01.422Z,48.35
2023-04-02T06:33:28.116Z,48.08
2023-04-02T06:35:55.378Z,48.23
2023-04-02T06:38:29.625Z,48.02
2023-04-02T06:41:01.192Z,47.54
2023-04-02T06:44:16.341Z,47.52
2023-04-02T06:46:49.925Z,47.39
2023-04-02T06:49:36.365Z,47.03
2023-04-02T06:52:06.475Z,47.21
2023-04-02T06:54:33.049Z,47.55
2023-04-02T06:56:59.609Z,47.21
2023-04-02T06:59:26.446Z,46.78
2023-04-02T07:01:54.749Z,47.09
2023-04-02T07:04:22.251Z,47.20
2023-04-02T07:06:49.095Z,47.34
2023-04-02T07:09:15.920Z,47.36
2023-04-02T07:11:42.515Z,47.58
2023-04-02T07:14:13.092Z,47.95
2023-04-02T07:16:41.362Z,47.57
2023-04-02T07:19:16.282Z,47.78
2023-04-02T07:21:42.776Z,47.68
2023-04-02T07:24:09.276Z,47.88
2023-04-02T07:26:35.847Z,47.58
2023-04-02T07:29:02.408Z,47.66
2023-04-02T07:31:29.400Z,48.12
2023-04-02T07:34:00.017Z,47.79
2023-04-02T07:36:28.828Z,47.99
2023-04-02T07:38:56.094Z,48.04
2023-04-02T07:41:23.277Z,48.26
2023-04-02T07:43:50.539Z,48.16
2023-04-02T07:46:19.141Z,48.28
2023-04-02T07:48:46.894Z,48.13
2023-04-02T07:51:18.160Z,48.26
2023-04-02T07:53:44.807Z,48.31
2023-04-02T07:56:18.675Z,48.82
2023-04-02T07:58:45.391Z,49.04
2023-04-02T08:01:24.054Z,48.56
2023-04-02T08:03:52.372Z,48.77
2023-04-02T08:06:21.634Z,48.96
2023-04-02T08:08:48.399Z,49.03
2023-04-02T08:11:15.032Z,49.54
2023-04-02T08:13:41.595Z,49.95
2023-04-02T08:16:08.679Z,50.02
2023-04-02T08:18:36.537Z,49.27
2023-04-02T08:21:06.724Z,49.25
2023-04-02T08:23:33.475Z,48.66
2023-04-02T08:26:00.007Z,48.62
2023-04-02T08:28:27.121Z,48.81
2023-04-02T08:30:53.708Z,48.30
2023-04-02T08:33:20.409Z,48.38
2023-04-02T08:35:49.174Z,47.96
2023-04-02T08:38:17.611Z,47.72
2023-04-02T08:40:46.312Z,48.18
2023-04-02T08:43:31.290Z,48.25
2023-04-02T08:46:09.144Z,48.00
2023-04-02T08:48:40.122Z,47.84
2023-04-02T08:51:16.252Z,47.95
2023-04-02T08:53:42.902Z,47.93
2023-04-02T08:56:18.228Z,47.94
2023-04-02T08:59:05.414Z,48.08
2023-04-02T09:01:51.802Z,48.05
2023-04-02T09:04:21.482Z,48.07
2023-04-02T09:06:49.705Z,48.12
2023-04-02T09:09:17.238Z,48.12
2023-04-02T09:12:00.755Z,49.03
2023-04-02T09:14:41.863Z,49.37
2023-04-02T09:17:20.269Z,50.20
2023-04-02T09:20:23.794Z,50.25
2023-04-02T09:22:51.860Z,50.33
2023-04-02T09:25:25.509Z,50.14
2023-04-02T09:27:53.342Z,50.45
2023-04-02T09:30:31.918Z,50.23
2023-04-02T09:33:07.583Z,49.67
2023-04-02T09:35:55.867Z,50.18
2023-04-02T09:38:30.807Z,49.58
2023-04-02T09:41:06.535Z,49.19
2023-04-02T09:43:38.473Z,48.93
2023-04-02T09:46:27.101Z,48.58
2023-04-02T09:48:58.379Z,48.67
2023-04-02T09:51:27.644Z,48.54
2023-04-02T09:54:03.181Z,48.60
2023-04-02T09:56:37.311Z,47.95
2023-04-02T09:59:05.495Z,49.06
2023-04-02T10:01:44.949Z,48.54
2023-04-02T10:04:35.372Z,49.12
2023-04-02T10:07:03.156Z,49.09
2023-04-02T10:09:31.056Z,49.72
2023-04-02T10:11:59.533Z,48.89
2023-04-02T10:14:34.311Z,49.87
2023-04-02T10:17:13.340Z,50.42
2023-04-02T10:19:49.395Z,50.88
2023-04-02T10:22:18.503Z,46.45
2023-04-02T10:24:45.053Z,46.72
2023-04-02T10:27:34.264Z,49.22
2023-04-02T10:30:07.393Z,48.87
2023-04-02T10:32:49.047Z,48.64
2023-04-02T10:35:35.084Z,49.16
2023-04-02T10:38:24.767Z,49.18
2023-04-02T10:41:00.869Z,48.66
2023-04-02T10:43:36.473Z,48.05
2023-04-02T10:46:09.111Z,48.31
2023-04-02T10:49:04.505Z,47.78
2023-04-02T10:51:50.503Z,48.33
2023-04-02T10:54:35.655Z,47.69
2023-04-02T10:57:24.043Z,45.33
2023-04-02T11:00:05.293Z,47.49
2023-04-02T11:02:53.042Z,47.44
2023-04-02T11:05:19.626Z,46.99
2023-04-02T11:07:53.788Z,46.88
2023-04-02T11:10:21.621Z,46.60
2023-04-02T11:13:13.313Z,46.07
2023-04-02T11:15:40.447Z,45.91
2023-04-02T11:18:07.038Z,45.37
2023-04-02T11:20:48.601Z,44.32
2023-04-02T11:23:18.726Z,45.00
2023-04-02T11:25:46.590Z,45.02
2023-04-02T11:28:30.794Z,45.15
2023-04-02T11:30:58.122Z,45.11
2023-04-02T11:33:45.575Z,44.52
2023-04-02T11:36:55.065Z,44.14
2023-04-02T11:39:49.653Z,43.84
2023-04-02T11:42:19.183Z,44.54
2023-04-02T11:44:45.953Z,44.43
2023-04-02T11:47:19.056Z,44.03
2023-04-02T11:49:54.634Z,43.84
2023-04-02T11:52:34.792Z,44.42
2023-04-02T11:55:25.117Z,44.29
2023-04-02T11:57:57.802Z,43.55
2023-04-02T12:00:30.052Z,44.05
2023-04-02T12:03:32.125Z,43.10
2023-04-02T12:06:13.358Z,43.36
2023-04-02T12:08:57.229Z,43.40
2023-04-02T12:11:36.608Z,43.20
2023-04-02T12:14:27.830Z,42.87
2023-04-02T12:16:54.716Z,43.22
2023-04-02T12:19:22.873Z,42.93
2023-04-02T12:21:53.024Z,42.72
2023-04-02T12:24:24.624Z,42.45
2023-04-02T12:27:17.852Z,42.13
2023-04-02T12:29:44.514Z,42.55
2023-04-02T12:32:23.841Z,41.86
2023-04-02T12:34:52.440Z,42.22
2023-04-02T12:37:27.738Z,42.00
2023-04-02T12:39:57.297Z,42.39
2023-04-02T12:42:33.081Z,41.58
2023-04-02T12:45:00.952Z,41.88
2023-04-02T12:47:28.760Z,41.85
2023-04-02T12:49:57.440Z,41.24
2023-04-02T12:52:28.758Z,41.71
2023-04-02T12:55:01.200Z,41.08
2023-04-02T12:57:27.848Z,41.29
2023-04-02T13:00:00.344Z,41.68
2023-04-02T13:02:33.066Z,41.52
2023-04-02T13:05:01.832Z,41.32
2023-04-02T13:07:31.400Z,41.35
2023-04-02T13:10:26.001Z,41.04
2023-04-02T13:13:01.654Z,40.92
2023-04-02T13:15:31.522Z,41.19
2023-04-02T13:18:13.283Z,40.35
2023-04-02T13:20:41.447Z,41.18
2023-04-02T13:23:34.829Z,40.13
2023-04-02T13:26:19.045Z,40.30
2023-04-02T13:29:01.968Z,40.64
2023-04-02T13:31:30.427Z,41.41
2023-04-02T13:33:57.934Z,41.09
2023-04-02T13:36:24.774Z,41.23
2023-04-02T13:38:51.765Z,40.97
2023-04-02T13:41:27.381Z,40.43
2023-04-02T13:43:55.487Z,40.71
2023-04-02T13:46:25.271Z,40.84
2023-04-02T13:48:53.622Z,40.68
2023-04-02T13:51:24.191Z,40.26
2023-04-02T13:53:56.829Z,40.05
2023-04-02T13:56:24.688Z,40.52
2023-04-02T13:58:51.846Z,40.40
2023-04-02T14:01:20.734Z,40.26
2023-04-02T14:03:47.322Z,40.63
2023-04-02T14:07:01.490Z,40.34
2023-04-02T14:09:47.919Z,40.26
2023-04-02T14:12:24.719Z,39.92
2023-04-02T14:15:00.609Z,39.86
2023-04-02T14:17:35.908Z,40.31
2023-04-02T14:20:13.997Z,39.97
2023-04-02T14:22:52.536Z,40.54
2023-04-02T14:25:33.703Z,40.66
2023-04-02T14:28:26.802Z,40.72
2023-04-02T14:31:10.629Z,41.03
2023-04-02T14:34:01.898Z,41.47
2023-04-02T14:36:42.184Z,41.29
2023-04-02T14:39:32.383Z,41.50
2023-04-02T14:42:10.159Z,41.39
2023-04-02T14:44:43.207Z,41.27
2023-04-02T14:47:33.524Z,41.66
2023-04-02T14:50:10.942Z,41.36
2023-04-02T14:52:39.806Z,41.51
2023-04-02T14:55:18.049Z,41.07
2023-04-02T14:57:51.894Z,41.10
2023-04-02T15:00:51.735Z,41.09
2023-04-02T15:03:40.949Z,40.91
2023-04-02T15:06:12.001Z,41.60
2023-04-02T15:09:17.844Z,41.47
2023-04-02T15:12:01.438Z,40.93
2023-04-02T15:14:34.452Z,41.17
2023-04-02T15:17:01.081Z,41.95
2023-04-02T15:19:27.573Z,41.81
2023-04-02T15:22:09.792Z,41.71
2023-04-02T15:24:56.098Z,41.29
2023-04-02T15:27:50.088Z,41.12
2023-04-02T15:30:27.671Z,41.27
2023-04-02T15:33:08.252Z,40.74
2023-04-02T15:35:52.782Z,40.39
2023-04-02T15:38:24.730Z,40.39
2023-04-02T15:40:58.696Z,40.19
2023-04-02T15:43:44.981Z,40.46
2023-04-02T15:46:36.050Z,39.70
2023-04-02T15:49:17.458Z,40.70
2023-04-02T15:52:01.429Z,40.29
2023-04-02T15:54:36.842Z,40.50
2023-04-02T15:57:41.761Z,41.05
2023-04-02T16:00:30.506Z,40.77
2023-04-02T16:03:12.520Z,40.41
2023-04-02T16:05:57.438Z,39.83
2023-04-02T16:08:56.940Z,39.32
2023-04-02T16:11:25.840Z,39.66
2023-04-02T16:14:00.984Z,39.31
2023-04-02T16:16:33.934Z,40.09
2023-04-02T16:19:22.815Z,40.26
2023-04-02T16:21:49.362Z,40.10
2023-04-02T16:24:15.950Z,40.19
2023-04-02T16:26:57.661Z,40.78
2023-04-02T16:29:54.657Z,40.60
2023-04-02T16:32:45.132Z,40.38
2023-04-02T16:35:41.110Z,40.47
2023-04-02T16:38:37.470Z,40.45
2023-04-02T16:41:38.518Z,40.66
2023-04-02T16:44:08.065Z,41.23
2023-04-02T16:47:23.957Z,41.15
2023-04-02T16:50:17.626Z,40.57
2023-04-02T16:52:52.951Z,40.99
2023-04-02T16:55:34.697Z,40.93
2023-04-02T16:58:34.586Z,40.75
2023-04-02T17:01:11.678Z,41.15
2023-04-02T17:03:56.858Z,40.82
2023-04-02T17:06:26.376Z,41.56
2023-04-02T17:09:21.936Z,41.18
2023-04-02T17:11:53.554Z,41.63
2023-04-02T17:14:25.107Z,41.64
2023-04-02T17:16:57.368Z,41.65
2023-04-02T17:19:26.744Z,40.98
2023-04-02T17:21:58.548Z,41.03
2023-04-02T17:24:33.434Z,40.80
2023-04-02T17:27:06.128Z,41.22
2023-04-02T17:29:39.175Z,40.96
2023-04-02T17:32:16.898Z,40.52
2023-04-02T17:34:43.510Z,40.50
2023-04-02T17:37:27.471Z,40.35
2023-04-02T17:40:09.035Z,40.03
2023-04-02T17:43:10.833Z,40.73
2023-04-02T17:45:55.457Z,40.89
2023-04-02T17:48:28.086Z,40.28
2023-04-02T17:51:21.731Z,40.30
2023-04-02T17:54:20.413Z,40.72
2023-04-02T17:57:01.153Z,40.76
2023-04-02T17:59:48.853Z,40.89
2023-04-02T18:02:39.243Z,41.02
2023-04-02T18:05:11.922Z,40.81
2023-04-02T18:08:12.450Z,41.46
2023-04-02T18:11:01.636Z,41.30
2023-04-02T18:13:42.510Z,40.86
2023-04-02T18:16:26.554Z,40.92
2023-04-02T18:19:03.545Z,41.32
2023-04-02T18:21:43.463Z,41.35
2023-04-02T18:24:43.621Z,41.38
2023-04-02T18:27:30.266Z,41.23
2023-04-02T18:30:13.781Z,41.01
2023-04-02T18:33:11.026Z,41.38
2023-04-02T18:35:37.548Z,41.18
2023-04-02T18:38:20.761Z,41.44
2023-04-02T18:41:04.226Z,41.04
2023-04-02T18:43:49.382Z,41.40
2023-04-02T18:46:48.999Z,41.23
2023-04-02T18:49:34.146Z,41.84
2023-04-02T18:52:03.674Z,41.34
2023-04-02T18:54:30.446Z,41.55
2023-04-02T18:56:57.079Z,41.97
2023-04-02T18:59:33.133Z,42.17
2023-04-02T19:02:21.517Z,42.00
2023-04-02T19:04:58.073Z,42.26
2023-04-02T19:07:28.800Z,42.32
2023-04-02T19:09:59.182Z,42.65
2023-04-02T19:12:25.765Z,42.79
2023-04-02T19:14:52.802Z,42.84
2023-04-02T19:17:36.963Z,42.75
2023-04-02T19:20:31.383Z,42.39
2023-04-02T19:23:13.847Z,42.66
2023-04-02T19:26:03.442Z,42.42
2023-04-02T19:28:39.675Z,42.77
2023-04-02T19:31:29.074Z,42.89
2023-04-02T19:34:39.081Z,42.22
2023-04-02T19:37:19.387Z,42.20
2023-04-02T19:40:00.065Z,42.46
2023-04-02T19:42:48.144Z,42.53
2023-04-02T19:45:35.835Z,42.60
2023-04-02T19:48:10.235Z,42.38
2023-04-02T19:50:37.310Z,42.77
2023-04-02T19:53:03.901Z,42.25
2023-04-02T19:55:30.512Z,42.40
2023-04-02T19:58:08.413Z,42.91
2023-04-02T20:00:47.934Z,42.95
2023-04-02T20:03:14.538Z,42.77
2023-04-02T20:05:41.083Z,42.53
2023-04-02T20:08:07.592Z,42.55
2023-04-02T20:10:35.035Z,42.39
2023-04-02T20:13:01.738Z,42.66
2023-04-02T20:15:28.285Z,42.78
2023-04-02T20:17:54.855Z,43.37
2023-04-02T20:20:21.487Z,43.39
2023-04-02T20:22:48.402Z,43.47
2023-04-02T20:25:16.029Z,43.14
2023-04-02T20:27:42.613Z,43.43
2023-04-02T20:30:09.390Z,43.50
2023-04-02T20:32:37.805Z,43.31
2023-04-02T20:35:05.123Z,43.61
2023-04-02T20:37:31.645Z,43.15
2023-04-02T20:39:58.961Z,43.32
2023-04-02T20:42:25.989Z,43.62
2023-04-02T20:44:52.622Z,43.35
2023-04-02T20:47:19.716Z,43.93
2023-04-02T20:49:46.426Z,43.63
2023-04-02T20:52:12.918Z,43.91
2023-04-02T20:54:39.456Z,43.99
2023-04-02T20:57:06.268Z,43.65
2023-04-02T20:59:32.950Z,43.71
2023-04-02T21:01:59.449Z,43.73
2023-04-02T21:04:27.956Z,44.35
2023-04-02T21:06:57.040Z,43.83
2023-04-02T21:09:24.043Z,43.92
2023-04-02T21:11:50.790Z,43.72
2023-04-02T21:14:18.031Z,44.06
2023-04-02T21:16:45.072Z,44.31
2023-04-02T21:19:11.804Z,44.02
2023-04-02T21:21:39.636Z,43.92
2023-04-02T21:24:08.150Z,44.07
2023-04-02T21:26:38.352Z,44.09
2023-04-02T21:29:06.091Z,44.10
2023-04-02T21:31:38.442Z,44.04
2023-04-02T21:34:06.527Z,43.78
2023-04-02T21:36:35.476Z,44.55
2023-04-02T21:39:11.110Z,44.09
2023-04-02T21:41:40.268Z,44.33
2023-04-02T21:44:09.410Z,44.18
2023-04-02T21:46:38.596Z,44.83
2023-04-02T21:49:07.909Z,44.41
2023-04-02T21:51:36.370Z,44.20
2023-04-02T21:54:03.762Z,44.22
2023-04-02T21:56:33.109Z,44.36
2023-04-02T21:59:01.874Z,44.37
2023-04-02T22:01:33.134Z,44.15
2023-04-02T22:04:02.072Z,44.59
2023-04-02T22:06:30.914Z,44.42
2023-04-02T22:09:00.587Z,44.12
2023-04-02T22:11:29.959Z,44.55
2023-04-02T22:13:57.288Z,44.43
2023-04-02T22:16:27.615Z,44.16
2023-04-02T22:18:56.228Z,44.54
2023-04-02T22:21:23.311Z,44.25
2023-04-02T22:23:50.317Z,44.40
2023-04-02T22:26:19.114Z,44.46
2023-04-02T22:28:46.114Z,44.74
2023-04-02T22:31:18.734Z,44.67
2023-04-02T22:33:46.726Z,44.33
2023-04-02T22:36:14.407Z,44.62
2023-04-02T22:38:41.138Z,44.47
2023-04-02T22:41:12.971Z,44.85
2023-04-02T22:43:41.019Z,44.41
2023-04-02T22:46:08.860Z,44.36
2023-04-02T22:48:36.160Z,44.47
2023-04-02T22:51:03.329Z,44.67
2023-04-02T22:53:29.949Z,44.75
2023-04-02T22:56:03.134Z,45.10
2023-04-02T22:58:29.803Z,44.89
2023-04-02T23:00:56.342Z,44.56
2023-04-02T23:03:22.832Z,44.54
2023-04-02T23:06:00.935Z,44.99
2023-04-02T23:08:27.741Z,45.05
2023-04-02T23:11:06.621Z,44.76
2023-04-02T23:13:34.184Z,44.98
2023-04-02T23:16:02.401Z,45.14
2023-04-02T23:18:31.434Z,45.35
2023-04-02T23:20:58.300Z,45.19
2023-04-02T23:23:25.965Z,45.03
2023-04-02T23:26:06.353Z,44.96
2023-04-02T23:28:33.046Z,45.13
2023-04-02T23:31:02.256Z,45.20
2023-04-02T23:33:28.983Z,45.16
2023-04-02T23:35:55.518Z,45.09
2023-04-02T23:38:22.060Z,45.08
2023-04-02T23:40:49.148Z,45.41
2023-04-02T23:43:15.717Z,45.36
2023-04-02T23:45:47.760Z,45.33
2023-04-02T23:48:14.611Z,45.25
2023-04-02T23:50:41.248Z,45.23
2023-04-02T23:53:07.830Z,45.21
2023-04-02T23:55:34.323Z,45.33
2023-04-02T23:58:01.007Z,45.62
